createdAt,value
2022-09-02T00:01:42.534Z,6.05
2022-09-02T00:03:44.510Z,4.60
2022-09-02T00:05:46.758Z,5.32
2022-09-02T00:07:48.354Z,5.63
2022-09-02T00:09:50.032Z,7.10
2022-09-02T00:11:52.993Z,3.97
2022-09-02T00:13:55.147Z,6.80
2022-09-02T00:15:56.767Z,7.45
2022-09-02T00:17:59.064Z,7.75
2022-09-02T00:20:00.760Z,5.40
2022-09-02T00:22:02.828Z,9.30
2022-09-02T00:24:05.789Z,6.90
2022-09-02T00:26:07.661Z,6.43
2022-09-02T00:28:09.526Z,7.72
2022-09-02T00:30:11.792Z,6.13
2022-09-02T00:32:13.346Z,9.85
2022-09-02T00:34:15.289Z,8.93
2022-09-02T00:36:16.858Z,8.90
2022-09-02T00:38:18.702Z,8.55
2022-09-02T00:40:21.033Z,9.50
2022-09-02T00:42:23.525Z,7.40
2022-09-02T00:44:25.095Z,9.80
2022-09-02T00:46:28.261Z,10.00
2022-09-02T00:48:32.588Z,6.80
2022-09-02T00:50:36.012Z,11.07
2022-09-02T00:52:45.001Z,8.50
2022-09-02T00:55:11.855Z,11.30
2022-09-02T00:57:19.731Z,12.38
2022-09-02T00:59:26.443Z,13.95
2022-09-02T01:01:28.608Z,15.25
2022-09-02T01:03:32.327Z,14.75
2022-09-02T01:05:40.563Z,12.65
2022-09-02T01:07:45.639Z,11.98
2022-09-02T01:09:47.278Z,10.30
2022-09-02T01:11:52.775Z,7.65
2022-09-02T01:13:55.037Z,10.82
2022-09-02T01:16:07.148Z,8.25
2022-09-02T01:18:09.801Z,6.97
2022-09-02T01:20:14.453Z,9.63
2022-09-02T01:22:25.055Z,13.25
2022-09-02T01:24:31.466Z,11.25
2022-09-02T01:26:33.717Z,8.48
2022-09-02T01:28:35.833Z,9.52
2022-09-02T01:30:41.468Z,12.05
2022-09-02T01:32:43.001Z,9.98
2022-09-02T01:34:44.579Z,11.10
2022-09-02T01:36:46.673Z,10.05
2022-09-02T01:38:48.256Z,14.30
2022-09-02T01:40:50.109Z,13.80
2022-09-02T01:42:57.411Z,11.73
2022-09-02T01:44:59.202Z,15.35
2022-09-02T01:47:00.903Z,14.20
2022-09-02T01:49:02.561Z,17.75
2022-09-02T01:51:04.975Z,16.52
2022-09-02T01:53:06.647Z,15.35
2022-09-02T01:55:08.664Z,14.40
2022-09-02T01:57:10.824Z,16.33
2022-09-02T01:59:17.746Z,16.20
2022-09-02T02:01:19.622Z,14.20
2022-09-02T02:03:21.352Z,15.32
2022-09-02T02:05:23.245Z,13.05
2022-09-02T02:07:25.030Z,17.23
2022-09-02T02:09:27.427Z,16.25
2022-09-02T02:11:28.987Z,11.75
2022-09-02T02:13:31.070Z,16.40
2022-09-02T02:17:33.064Z,13.00
2022-09-02T02:19:35.411Z,13.05
2022-09-02T02:21:37.021Z,13.05
2022-09-02T02:23:38.849Z,9.73
2022-09-02T02:25:40.831Z,7.05
2022-09-02T02:27:43.742Z,11.15
2022-09-02T02:29:45.450Z,7.32
2022-09-02T02:31:47.238Z,6.20
2022-09-02T02:33:48.790Z,6.15
2022-09-02T02:35:50.468Z,4.90
2022-09-02T02:37:52.547Z,5.72
2022-09-02T02:39:54.118Z,4.60
2022-09-02T02:41:55.693Z,4.75
2022-09-02T02:43:57.422Z,4.35
2022-09-02T02:45:59.217Z,4.50
2022-09-02T02:48:00.995Z,4.57
2022-09-02T02:50:02.729Z,8.63
2022-09-02T02:52:04.469Z,4.85
2022-09-02T02:54:06.393Z,6.07
2022-09-02T02:56:08.829Z,3.85
2022-09-02T02:58:10.842Z,6.38
2022-09-02T03:00:23.022Z,4.72
2022-09-02T03:02:24.724Z,5.25
2022-09-02T03:04:26.439Z,4.53
2022-09-02T03:06:29.179Z,6.25
2022-09-02T03:08:30.781Z,8.98
2022-09-02T03:10:33.418Z,5.10
2022-09-02T03:12:36.388Z,5.05
2022-09-02T03:14:37.925Z,4.18
2022-09-02T03:16:40.006Z,4.60
2022-09-02T03:18:41.750Z,6.25
2022-09-02T03:20:43.377Z,180.00
2022-09-02T03:22:47.855Z,317.75
2022-09-02T03:24:49.511Z,253.25
2022-09-02T03:26:51.251Z,99.45
2022-09-02T03:28:59.626Z,300.17
2022-09-02T03:31:01.244Z,404.10
2022-09-02T03:33:05.320Z,158.75
2022-09-02T03:35:09.724Z,49.17
2022-09-02T03:37:11.367Z,18.05
2022-09-02T03:39:13.601Z,5.60
2022-09-02T03:41:15.226Z,8.30
2022-09-02T03:43:16.780Z,7.15
2022-09-02T03:45:18.980Z,6.82
2022-09-02T03:47:21.640Z,8.27
2022-09-02T03:49:27.914Z,9.45
2022-09-02T03:51:29.583Z,7.88
2022-09-02T03:53:31.359Z,7.82
2022-09-02T03:55:33.320Z,5.75
2022-09-02T03:57:36.630Z,6.43
2022-09-02T03:59:38.193Z,6.00
2022-09-02T04:01:40.146Z,7.07
2022-09-02T04:03:42.523Z,6.97
2022-09-02T04:05:48.023Z,7.70
2022-09-02T04:07:51.632Z,9.75
2022-09-02T04:09:53.317Z,7.40
2022-09-02T04:11:54.969Z,6.20
2022-09-02T04:13:56.801Z,6.10
2022-09-02T04:16:01.837Z,6.53
2022-09-02T04:18:03.907Z,7.47
2022-09-02T04:20:07.122Z,5.25
2022-09-02T04:22:08.772Z,4.47
2022-09-02T04:24:11.945Z,4.78
2022-09-02T04:26:16.094Z,6.18
2022-09-02T04:28:17.670Z,4.10
2022-09-02T04:30:19.384Z,7.43
2022-09-02T04:32:21.858Z,6.97
2022-09-02T04:34:23.503Z,5.20
2022-09-02T04:36:26.155Z,3.28
2022-09-02T04:38:32.292Z,2.83
2022-09-02T04:40:33.921Z,3.13
2022-09-02T04:42:35.919Z,1.92
2022-09-02T04:44:37.488Z,3.83
2022-09-02T04:46:39.198Z,3.25
2022-09-02T04:48:40.909Z,5.75
2022-09-02T04:50:43.569Z,2.97
2022-09-02T04:52:45.459Z,2.53
2022-09-02T04:54:47.682Z,5.90
2022-09-02T04:56:49.267Z,9.88
2022-09-02T04:58:51.846Z,3.28
2022-09-02T05:00:53.460Z,3.53
2022-09-02T05:02:55.861Z,5.43
2022-09-02T05:04:57.503Z,4.10
2022-09-02T05:07:01.927Z,5.03
2022-09-02T05:09:04.228Z,6.28
2022-09-02T05:11:07.040Z,8.55
2022-09-02T05:13:08.614Z,19.55
2022-09-02T05:15:12.841Z,23.63
2022-09-02T05:17:15.636Z,19.27
2022-09-02T05:19:17.218Z,26.08
2022-09-02T05:21:19.180Z,20.92
2022-09-02T05:23:20.804Z,30.95
2022-09-02T05:25:22.751Z,30.05
2022-09-02T05:27:24.367Z,17.08
2022-09-02T05:29:28.685Z,20.17
2022-09-02T05:31:30.342Z,20.10
2022-09-02T05:33:33.626Z,21.33
2022-09-02T05:35:35.296Z,18.17
2022-09-02T05:37:41.844Z,15.80
2022-09-02T05:39:43.419Z,18.95
2022-09-02T05:41:44.985Z,16.27
2022-09-02T05:43:47.172Z,15.07
2022-09-02T05:45:49.368Z,18.52
2022-09-02T05:47:51.270Z,14.45
2022-09-02T05:49:52.875Z,12.63
2022-09-02T05:51:57.892Z,10.05
2022-09-02T05:54:01.160Z,11.60
2022-09-02T05:56:06.102Z,5.63
2022-09-02T05:58:08.057Z,11.75
2022-09-02T06:00:10.187Z,7.32
2022-09-02T06:02:13.284Z,10.68
2022-09-02T06:04:15.178Z,8.05
2022-09-02T06:06:18.611Z,6.20
2022-09-02T06:08:20.363Z,7.55
2022-09-02T06:10:22.180Z,7.32
2022-09-02T06:12:23.858Z,7.97
2022-09-02T06:14:25.707Z,6.00
2022-09-02T06:16:27.414Z,7.88
2022-09-02T06:18:29.162Z,9.85
2022-09-02T06:20:32.639Z,10.98
2022-09-02T06:22:34.347Z,11.32
2022-09-02T06:24:35.996Z,5.75
2022-09-02T06:26:38.611Z,4.57
2022-09-02T06:28:40.941Z,6.47
2022-09-02T06:30:45.147Z,7.22
2022-09-02T06:32:50.584Z,6.45
2022-09-02T06:34:52.365Z,8.20
2022-09-02T06:36:54.380Z,7.72
2022-09-02T06:38:57.870Z,6.80
2022-09-02T06:40:59.480Z,6.22
2022-09-02T06:43:01.031Z,6.30
2022-09-02T06:45:03.761Z,7.47
2022-09-02T06:47:05.382Z,3.13
2022-09-02T06:49:08.341Z,3.83
2022-09-02T06:51:29.491Z,7.55
2022-09-02T06:53:31.138Z,2.72
2022-09-02T06:55:35.927Z,3.28
2022-09-02T06:57:38.807Z,2.85
2022-09-02T06:59:40.358Z,3.05
2022-09-02T07:01:42.871Z,5.72
2022-09-02T07:04:03.211Z,5.68
2022-09-02T07:06:10.982Z,3.85
2022-09-02T07:08:12.743Z,4.72
2022-09-02T07:10:15.137Z,5.57
2022-09-02T07:12:17.450Z,7.97
2022-09-02T07:14:20.626Z,5.85
2022-09-02T07:16:27.060Z,3.83
2022-09-02T07:18:29.172Z,3.60
2022-09-02T07:20:31.173Z,4.82
2022-09-02T07:22:32.798Z,4.65
2022-09-02T07:24:34.596Z,3.20
2022-09-02T07:26:36.510Z,3.50
2022-09-02T07:28:38.090Z,6.65
2022-09-02T07:30:43.707Z,2.38
2022-09-02T07:32:45.419Z,5.13
2022-09-02T07:34:47.329Z,4.32
2022-09-02T07:36:48.895Z,4.25
2022-09-02T07:38:50.634Z,5.75
2022-09-02T07:40:56.816Z,8.35
2022-09-02T07:42:59.303Z,4.55
2022-09-02T07:45:01.310Z,3.38
2022-09-02T07:47:02.907Z,3.85
2022-09-02T07:49:09.016Z,4.60
2022-09-02T07:51:11.182Z,4.68
2022-09-02T07:53:16.733Z,4.97
2022-09-02T07:55:18.358Z,2.08
2022-09-02T07:57:20.188Z,7.97
2022-09-02T07:59:21.950Z,2.92
2022-09-02T08:01:24.064Z,3.15
2022-09-02T08:03:26.909Z,3.95
2022-09-02T08:05:29.103Z,5.78
2022-09-02T08:07:30.670Z,1.65
2022-09-02T08:09:32.816Z,3.10
2022-09-02T08:11:39.329Z,2.65
2022-09-02T08:13:40.922Z,1.33
2022-09-02T08:15:42.994Z,2.65
2022-09-02T08:17:44.788Z,5.72
2022-09-02T08:19:46.544Z,3.22
2022-09-02T08:21:48.152Z,2.78
2022-09-02T08:23:51.375Z,1.73
2022-09-02T08:25:53.331Z,10.95
2022-09-02T08:29:58.982Z,2.67
2022-09-02T08:32:01.507Z,3.70
2022-09-02T08:34:05.242Z,5.07
2022-09-02T08:36:09.406Z,2.55
2022-09-02T08:38:11.179Z,1.50
2022-09-02T08:40:24.194Z,2.13
2022-09-02T08:42:58.432Z,5.15
2022-09-02T08:45:23.677Z,6.18
2022-09-02T08:47:29.752Z,3.47
2022-09-02T08:49:39.135Z,2.35
2022-09-02T08:51:53.736Z,2.85
2022-09-02T08:54:05.468Z,5.72
2022-09-02T08:56:10.262Z,3.40
2022-09-02T08:58:16.758Z,4.45
2022-09-02T09:00:18.362Z,2.55
2022-09-02T09:02:27.493Z,5.63
2022-09-02T09:04:58.438Z,3.45
2022-09-02T09:07:05.924Z,2.10
2022-09-02T09:09:31.994Z,2.00
2022-09-02T09:11:43.818Z,2.50
2022-09-02T09:14:06.133Z,3.60
2022-09-02T09:16:19.753Z,2.80
2022-09-02T09:18:39.364Z,4.68
2022-09-02T09:20:43.297Z,1.20
2022-09-02T09:22:45.709Z,0.85
2022-09-02T09:24:49.647Z,4.97
2022-09-02T09:26:51.263Z,1.45
2022-09-02T09:28:55.279Z,1.40
2022-09-02T09:30:57.383Z,1.73
2022-09-02T09:33:00.346Z,1.92
2022-09-02T09:35:13.258Z,1.10
2022-09-02T09:37:32.709Z,3.63
2022-09-02T09:39:36.904Z,1.33
2022-09-02T09:41:38.499Z,2.95
2022-09-02T09:43:40.114Z,0.80
2022-09-02T09:45:47.551Z,0.95
2022-09-02T09:48:30.845Z,2.00
2022-09-02T09:50:32.425Z,2.35
2022-09-02T09:52:34.411Z,2.17
2022-09-02T09:54:36.041Z,2.00
2022-09-02T09:56:38.875Z,1.00
2022-09-02T09:58:40.352Z,2.10
2022-09-02T10:00:41.913Z,2.42
2022-09-02T10:02:52.216Z,1.63
2022-09-02T10:05:10.939Z,0.73
2022-09-02T10:07:15.773Z,1.40
2022-09-02T10:09:20.153Z,1.42
2022-09-02T10:11:25.005Z,5.65
2022-09-02T10:13:30.492Z,4.38
2022-09-02T10:15:41.116Z,0.75
2022-09-02T10:18:14.715Z,2.75
2022-09-02T10:20:44.558Z,1.25
2022-09-02T10:23:06.138Z,1.08
2022-09-02T10:25:30.558Z,2.72
2022-09-02T10:27:44.167Z,2.28
2022-09-02T10:30:21.967Z,3.67
2022-09-02T10:32:35.826Z,2.78
2022-09-02T10:35:00.072Z,4.90
2022-09-02T10:37:12.538Z,1.15
2022-09-02T10:39:45.408Z,3.72
2022-09-02T10:41:47.589Z,4.47
2022-09-02T10:44:02.924Z,3.00
2022-09-02T10:46:07.289Z,1.42
2022-09-02T10:48:17.971Z,2.63
2022-09-02T10:50:25.711Z,1.40
2022-09-02T10:52:40.304Z,3.45
2022-09-02T10:54:54.213Z,5.25
2022-09-02T10:57:01.712Z,4.25
2022-09-02T10:59:10.386Z,4.75
2022-09-02T11:01:39.471Z,3.20
2022-09-02T11:04:05.040Z,5.60
2022-09-02T11:06:14.984Z,2.58
2022-09-02T11:10:31.290Z,2.45
2022-09-02T11:12:36.504Z,6.13
2022-09-02T11:15:07.722Z,2.72
2022-09-02T11:17:17.477Z,3.30
2022-09-02T11:19:27.542Z,6.90
2022-09-02T11:21:42.879Z,0.97
2022-09-02T11:23:54.057Z,2.95
2022-09-02T11:26:01.554Z,9.77
2022-09-02T11:28:27.428Z,6.93
2022-09-02T11:33:27.443Z,7.72
2022-09-02T11:35:39.447Z,2.17
2022-09-02T11:37:51.713Z,3.30
2022-09-02T11:40:23.539Z,3.83
2022-09-02T11:42:33.876Z,1.92
2022-09-02T11:44:52.690Z,2.17
2022-09-02T11:47:13.206Z,3.88
2022-09-02T11:49:48.769Z,1.52
2022-09-02T11:52:26.397Z,1.27
2022-09-02T11:54:30.155Z,5.47
2022-09-02T11:56:39.857Z,4.82
2022-09-02T11:58:44.291Z,2.65
2022-09-02T12:00:56.006Z,5.22
2022-09-02T12:03:11.627Z,3.42
2022-09-02T12:05:31.144Z,2.20
2022-09-02T12:07:48.146Z,1.17
2022-09-02T12:09:51.577Z,5.90
2022-09-02T12:11:55.039Z,6.28
2022-09-02T12:13:56.880Z,1.80
2022-09-02T12:16:16.882Z,2.85
2022-09-02T12:18:31.967Z,2.38
2022-09-02T12:20:36.289Z,1.98
2022-09-02T12:22:39.524Z,1.70
2022-09-02T12:24:53.876Z,1.98
2022-09-02T12:26:55.628Z,1.83
2022-09-02T12:29:18.350Z,3.17
2022-09-02T12:31:22.525Z,2.22
2022-09-02T12:33:35.213Z,0.63
2022-09-02T12:35:40.463Z,3.17
2022-09-02T12:37:54.587Z,8.50
2022-09-02T12:39:58.517Z,2.55
2022-09-02T12:42:12.640Z,1.75
2022-09-02T12:44:41.343Z,9.07
2022-09-02T12:46:44.910Z,7.80
2022-09-02T12:49:16.781Z,2.55
2022-09-02T12:51:56.456Z,1.20
2022-09-02T12:53:59.055Z,3.35
2022-09-02T12:56:15.725Z,3.80
2022-09-02T12:58:21.352Z,5.88
2022-09-02T13:00:54.384Z,2.33
2022-09-02T13:03:04.798Z,0.82
2022-09-02T13:05:50.555Z,4.78
2022-09-02T13:08:21.241Z,1.83
2022-09-02T13:11:13.812Z,2.90
2022-09-02T13:13:28.314Z,4.10
2022-09-02T13:15:48.207Z,1.20
2022-09-02T13:20:27.091Z,1.65
2022-09-02T13:22:57.191Z,2.80
2022-09-02T13:25:13.307Z,2.00
2022-09-02T13:27:48.580Z,3.28
2022-09-02T13:30:06.473Z,3.60
2022-09-02T13:32:13.060Z,3.80
2022-09-02T13:34:14.793Z,3.00
2022-09-02T13:36:37.548Z,3.78
2022-09-02T13:38:39.306Z,2.65
2022-09-02T13:40:41.290Z,4.70
2022-09-02T13:42:48.132Z,2.50
2022-09-02T13:44:49.748Z,2.60
2022-09-02T13:46:52.590Z,5.40
2022-09-02T13:48:54.229Z,2.40
2022-09-02T13:51:00.187Z,4.95
2022-09-02T13:55:26.099Z,3.78
2022-09-02T13:57:29.818Z,2.03
2022-09-02T13:59:33.507Z,1.10
2022-09-02T14:01:38.136Z,6.65
2022-09-02T14:03:40.126Z,3.30
2022-09-02T14:05:47.439Z,1.98
2022-09-02T14:07:52.125Z,3.72
2022-09-02T14:09:53.995Z,5.53
2022-09-02T14:11:56.428Z,3.40
2022-09-02T14:13:58.077Z,4.82
2022-09-02T14:16:47.625Z,3.72
2022-09-02T14:19:25.045Z,3.67
2022-09-02T14:21:26.618Z,1.35
2022-09-02T14:23:30.749Z,2.72
2022-09-02T14:25:36.651Z,3.17
2022-09-02T14:27:38.933Z,7.40
2022-09-02T14:29:44.488Z,3.83
2022-09-02T14:31:46.944Z,16.10
2022-09-02T14:33:48.506Z,6.78
2022-09-02T14:35:59.812Z,4.32
2022-09-02T14:38:02.832Z,3.50
2022-09-02T14:40:12.662Z,10.82
2022-09-02T14:42:15.537Z,8.75
2022-09-02T14:44:32.750Z,3.08
2022-09-02T14:46:48.924Z,4.75
2022-09-02T14:48:56.670Z,5.25
2022-09-02T14:51:04.053Z,6.93
2022-09-02T14:53:07.860Z,4.30
2022-09-02T14:55:36.878Z,11.77
2022-09-02T14:57:39.137Z,6.23
2022-09-02T14:59:40.815Z,5.93
2022-09-02T15:01:46.818Z,3.30
2022-09-02T15:03:50.542Z,7.00
2022-09-02T15:05:52.488Z,5.65
2022-09-02T15:07:54.073Z,2.45
2022-09-02T15:09:55.823Z,3.60
2022-09-02T15:12:02.122Z,17.35
2022-09-02T15:14:04.296Z,3.25
2022-09-02T15:16:05.963Z,1.95
2022-09-02T15:18:08.963Z,4.13
2022-09-02T15:20:11.521Z,3.30
2022-09-02T15:22:14.302Z,3.88
2022-09-02T15:24:15.955Z,2.00
2022-09-02T15:26:17.550Z,2.90
2022-09-02T15:28:19.166Z,3.03
2022-09-02T15:30:20.716Z,2.30
2022-09-02T15:32:22.272Z,7.40
2022-09-02T15:34:24.295Z,3.72
2022-09-02T15:36:27.724Z,2.85
2022-09-02T15:38:29.317Z,2.00
2022-09-02T15:40:31.827Z,4.68
2022-09-02T15:42:35.264Z,5.72
2022-09-02T15:44:36.944Z,1.25
2022-09-02T15:46:38.690Z,1.95
2022-09-02T15:48:40.841Z,4.47
2022-09-02T15:50:43.178Z,2.33
2022-09-02T15:52:48.594Z,2.55
2022-09-02T15:54:50.162Z,2.88
2022-09-02T15:56:56.633Z,2.95
2022-09-02T15:59:03.602Z,2.58
2022-09-02T16:01:05.309Z,3.45
2022-09-02T16:03:07.115Z,3.25
2022-09-02T16:05:11.986Z,2.75
2022-09-02T16:07:16.784Z,3.63
2022-09-02T16:09:19.587Z,5.95
2022-09-02T16:11:22.594Z,5.45
2022-09-02T16:13:24.169Z,2.38
2022-09-02T16:15:25.784Z,7.13
2022-09-02T16:17:27.358Z,2.17
2022-09-02T16:19:30.530Z,3.33
2022-09-02T16:21:32.240Z,5.05
2022-09-02T16:23:34.377Z,3.65
2022-09-02T16:25:35.970Z,6.13
2022-09-02T16:27:52.489Z,3.00
2022-09-02T16:29:54.164Z,7.13
2022-09-02T16:34:20.612Z,5.95
2022-09-02T16:36:23.361Z,5.13
2022-09-02T16:38:26.593Z,5.55
2022-09-02T16:40:28.185Z,6.68
2022-09-02T16:42:32.042Z,8.23
2022-09-02T16:44:35.842Z,8.98
2022-09-02T16:46:40.603Z,5.32
2022-09-02T16:48:42.180Z,4.15
2022-09-02T16:50:43.729Z,6.32
2022-09-02T16:52:45.610Z,4.97
2022-09-02T16:54:47.509Z,6.47
2022-09-02T16:56:49.092Z,3.75
2022-09-02T16:58:54.293Z,4.32
2022-09-02T17:00:56.404Z,3.88
2022-09-02T17:02:57.959Z,7.75
2022-09-02T17:04:59.571Z,5.80
2022-09-02T17:07:01.146Z,6.82
2022-09-02T17:09:02.970Z,7.13
2022-09-02T17:11:28.140Z,6.50
2022-09-02T17:13:29.665Z,9.70
2022-09-02T17:15:31.233Z,7.55
2022-09-02T17:17:32.834Z,8.27
2022-09-02T17:19:34.488Z,4.95
2022-09-02T17:21:44.717Z,5.30
2022-09-02T17:23:46.768Z,5.00
2022-09-02T17:25:48.351Z,3.95
2022-09-02T17:27:51.001Z,6.50
2022-09-02T17:29:52.692Z,5.72
2022-09-02T17:31:54.361Z,4.00
2022-09-02T17:33:58.305Z,7.57
2022-09-02T17:36:00.876Z,7.68
2022-09-02T17:38:02.477Z,9.15
2022-09-02T17:40:06.451Z,10.35
2022-09-02T17:42:08.247Z,5.45
2022-09-02T17:44:10.286Z,8.32
2022-09-02T17:46:11.936Z,7.35
2022-09-02T17:48:37.028Z,8.85
2022-09-02T17:50:35.606Z,15.18
2022-09-02T17:52:37.182Z,11.13
2022-09-02T17:54:40.719Z,11.48
2022-09-02T17:57:10.445Z,10.20
2022-09-02T17:59:24.816Z,9.23
2022-09-02T18:01:27.928Z,10.98
2022-09-02T18:03:38.616Z,14.77
2022-09-02T18:05:42.919Z,8.50
2022-09-02T18:08:02.830Z,8.70
2022-09-02T18:12:08.019Z,8.77
2022-09-02T18:14:32.593Z,7.55
2022-09-02T18:16:59.338Z,6.05
2022-09-02T18:19:19.412Z,7.10
2022-09-02T18:21:41.681Z,7.97
2022-09-02T18:23:53.559Z,5.75
2022-09-02T18:26:30.332Z,5.70
2022-09-02T18:28:34.562Z,8.68
2022-09-02T18:31:07.830Z,7.03
2022-09-02T18:33:27.655Z,11.27
2022-09-02T18:35:50.373Z,6.13
2022-09-02T18:37:54.971Z,8.30
2022-09-02T18:40:35.083Z,10.35
2022-09-02T18:42:45.353Z,7.38
2022-09-02T18:44:56.543Z,6.15
2022-09-02T18:47:01.967Z,8.70
2022-09-02T18:49:04.584Z,5.53
2022-09-02T18:51:12.921Z,16.90
2022-09-02T18:53:18.735Z,10.65
2022-09-02T18:55:20.579Z,12.38
2022-09-02T18:57:22.153Z,16.23
2022-09-02T18:59:35.441Z,7.80
2022-09-02T19:01:46.120Z,11.52
2022-09-02T19:03:49.624Z,9.65
2022-09-02T19:05:51.161Z,7.35
2022-09-02T19:08:21.543Z,6.32
2022-09-02T19:10:23.899Z,6.72
2022-09-02T19:12:28.120Z,6.55
2022-09-02T19:14:30.866Z,5.28
2022-09-02T19:16:34.045Z,7.80
2022-09-02T19:18:35.701Z,4.30
2022-09-02T19:20:37.934Z,3.67
2022-09-02T19:22:41.964Z,5.50
2022-09-02T19:24:47.862Z,4.03
2022-09-02T19:26:51.209Z,3.72
2022-09-02T19:28:55.557Z,5.82
2022-09-02T19:31:02.323Z,8.65
2022-09-02T19:33:06.768Z,7.82
2022-09-02T19:35:10.330Z,2.80
2022-09-02T19:37:13.532Z,4.28
2022-09-02T19:39:15.697Z,7.25
2022-09-02T19:41:17.418Z,6.60
2022-09-02T19:43:20.290Z,11.05
2022-09-02T19:45:22.588Z,7.18
2022-09-02T19:49:45.812Z,16.25
2022-09-02T19:51:47.704Z,7.10
2022-09-02T19:53:49.323Z,9.95
2022-09-02T19:55:51.576Z,8.20
2022-09-02T19:57:53.349Z,6.28
2022-09-02T19:59:55.017Z,9.32
2022-09-02T20:01:57.447Z,10.82
2022-09-02T20:03:59.044Z,8.32
2022-09-02T20:06:00.811Z,6.35
2022-09-02T20:08:02.571Z,7.43
2022-09-02T20:10:06.088Z,6.88
2022-09-02T20:12:08.202Z,5.78
2022-09-02T20:14:09.785Z,5.53
2022-09-02T20:16:18.313Z,8.88
2022-09-02T20:18:21.743Z,11.82
2022-09-02T20:20:25.426Z,8.05
2022-09-02T20:22:30.682Z,5.80
2022-09-02T20:24:32.917Z,5.35
2022-09-02T20:26:46.612Z,7.55
2022-09-02T20:29:03.433Z,6.30
2022-09-02T20:31:50.226Z,9.45
2022-09-02T20:34:11.891Z,10.43
2022-09-02T20:36:24.992Z,13.32
2022-09-02T20:38:29.403Z,6.72
2022-09-02T20:40:46.269Z,17.85
2022-09-02T20:43:18.717Z,9.73
2022-09-02T20:45:39.624Z,15.50
2022-09-02T20:48:15.316Z,15.77
2022-09-02T20:50:36.498Z,7.47
2022-09-02T20:53:06.459Z,4.57
2022-09-02T20:55:26.496Z,7.07
2022-09-02T20:57:41.096Z,4.80
2022-09-02T21:00:14.780Z,5.68
2022-09-02T21:02:18.895Z,4.07
2022-09-02T21:04:32.944Z,5.03
2022-09-02T21:06:37.826Z,4.72
2022-09-02T21:08:57.317Z,7.25
2022-09-02T21:11:06.440Z,6.70
2022-09-02T21:13:22.247Z,7.40
2022-09-02T21:15:32.604Z,11.88
2022-09-02T21:17:48.974Z,20.65
2022-09-02T21:19:55.390Z,17.00
2022-09-02T21:22:06.129Z,16.58
2022-09-02T21:24:11.229Z,12.60
2022-09-02T21:26:33.383Z,10.10
2022-09-02T21:28:41.859Z,8.85
2022-09-02T21:30:51.570Z,10.75
2022-09-02T21:33:00.988Z,8.90
2022-09-02T21:35:08.897Z,9.57
2022-09-02T21:37:12.499Z,11.48
2022-09-02T21:39:18.827Z,14.77
2022-09-02T21:41:33.357Z,17.08
2022-09-02T21:43:55.996Z,15.30
2022-09-02T21:46:19.714Z,16.17
2022-09-02T21:48:46.370Z,14.90
2022-09-02T21:50:58.786Z,10.63
2022-09-02T21:53:36.083Z,9.50
2022-09-02T21:55:49.495Z,12.85
2022-09-02T21:58:28.459Z,12.43
2022-09-02T22:00:30.588Z,10.93
2022-09-02T22:03:12.080Z,11.05
2022-09-02T22:05:13.541Z,9.75
2022-09-02T22:07:24.029Z,9.82
2022-09-02T22:09:31.081Z,8.23
2022-09-02T22:12:06.073Z,9.32
2022-09-02T22:14:19.128Z,8.23
2022-09-02T22:16:39.384Z,11.57
2022-09-02T22:18:49.030Z,8.80
2022-09-02T22:20:52.386Z,10.73
2022-09-02T22:22:58.880Z,11.07
2022-09-02T22:25:00.511Z,8.35
2022-09-02T22:27:07.376Z,10.93
2022-09-02T22:29:29.078Z,9.85
2022-09-02T22:31:32.569Z,12.25
2022-09-02T22:33:36.920Z,10.20
2022-09-02T22:35:50.702Z,11.98
2022-09-02T22:38:01.649Z,8.07
2022-09-02T22:40:06.428Z,16.85
2022-09-02T22:42:20.116Z,7.15
2022-09-02T22:44:49.390Z,11.35
2022-09-02T22:47:26.531Z,8.18
2022-09-02T22:49:50.301Z,10.30
2022-09-02T22:52:18.436Z,8.05
2022-09-02T22:54:20.005Z,8.85
2022-09-02T22:56:41.562Z,9.75
2022-09-02T22:59:01.328Z,8.75
2022-09-02T23:01:05.647Z,11.40
2022-09-02T23:03:15.638Z,14.10
2022-09-02T23:05:44.030Z,14.90
2022-09-02T23:07:45.681Z,12.05
2022-09-02T23:09:48.232Z,12.10
2022-09-02T23:11:56.937Z,14.65
2022-09-02T23:14:24.037Z,14.82
2022-09-02T23:16:51.575Z,11.52
2022-09-02T23:19:19.619Z,14.57
2022-09-02T23:21:37.274Z,11.30
2022-09-02T23:23:57.758Z,15.65
2022-09-02T23:26:16.705Z,13.90
2022-09-02T23:28:47.745Z,13.37
2022-09-02T23:31:39.452Z,11.95
2022-09-02T23:34:00.438Z,13.73
2022-09-02T23:36:13.171Z,18.08
2022-09-02T23:38:34.977Z,21.17
2022-09-02T23:40:46.473Z,22.95
2022-09-02T23:42:49.266Z,21.85
2022-09-02T23:44:50.879Z,24.52
2022-09-02T23:47:06.762Z,25.92
2022-09-02T23:49:15.030Z,24.05
2022-09-02T23:51:19.209Z,19.27
2022-09-02T23:53:54.006Z,20.95
2022-09-02T23:56:01.331Z,18.80
2022-09-02T23:58:07.734Z,20.17
